Aérodrome :
LOGIN :

S'inscrire | Disclaimer

   EN    FR    IT 

 










Légende :    VFR   VFR Marginal   IFR   IFR Intensif   IFR Très Intensif
Visi : 
Plafond : 
>= 8 km
>= 3000ft
5 à 8 km
1000 à 3000 ft
1500m à 5 km
500 à 1000 ft
800 à 1500m
200 à 500 ft
< 800m
< 200 ft
Symboles :   Orages  Brouillard  Fortes neiges  Fortes précipitations  Vent > 20 kt
SIGMETs :   Divers  Orages  Givrage  Turbulence  Onde Orograph.  Cendres Volcan.






- Altitude de l'aérodrome : 376 ft


LHKE - Kecskemét

DERNIER METAR :
  • 281515Z 16006KT 3500 BR SCT055 OVC110 06/04 Q1004 R12/29//95 TEMPO 3000 -RA BR RMK YLO

METARs EXPIRÉS :
  • 281445Z 17006KT 4000 BR SCT047 BKN083 OVC200 06/05 Q1005 R12/29//95 TEMPO 3000 BR RMK GRN
  • 281415Z 16006KT 130V190 4000 BR BKN047 OVC110 06/05 Q1005 R12/29//95 NOSIG RMK GRN
  • 281345Z 17006KT 140V210 4000 BR OVC047 06/05 Q1005 R12/29//95 NOSIG RMK GRN
  • 281315Z 17006KT 4000 BR BKN046 OVC057 06/04 Q1005 R12/29//95 TEMPO 5000 BR RMK GRN
  • 281245Z 19006KT 4000 BR OVC045 05/04 Q1006 R12/29//95 TEMPO 5000 BR RMK GRN

TAF TAF LHKE
Valide du 28 à 15h jusqu'au 29 à 00h UTC


281415Z 2815/2824 17010KT 4000 BR BKN040 BKN100
TEMPO 2815/2818 19014KT 3000 SHRA RA BR SCT020TCU BKN033
BECMG 2818/2821 28010G20KT
TEMPO 2818/2823 2000 SHRA BKN008 BKN015TCU
PROB30
TEMPO 2818/2821 VRB16G34KT 1500 TSRA BKN005 BKN015CB
BECMG 2821/2824 30014G24KT 8000 NSW NSC



MET'MAP, la Météo Aéronautique d'un coup d'oeil ! - Copyright ORBIFLY Décembre 2007 - Disclaimer

ORBIFLY MET'MAP TEAM :

Programmation & Développement : Alexandra Zaïnal
Sur une idée originale de : Baudouin d'Aumeries
Assistance à la programmation : Marc-Olivier Méhu
Soutien technique & logistique : Manuel Goepfert

Contact : metmap@orbifly.com




SOURCES & CREDITS :

   NOAA